University AP, Davis, CA, CA

6:02 AM PST on November 21, 2019 (GMT -0800)
University AP, Davis, CA

Weather History for KEDU - October, 2019

Change the Weather History Date:

Monday, October 21, 2019

  Actual Average (WUND) Record (WUND)
Temperature  
Mean Temperature 67 °F -  
Max Temperature 84 °F - - (-1)
Min Temperature 50 °F - - (-1)
Cooling Degree Days 2    
Growing Degree Days 17 (Base 50)    
Moisture  
Dew Point 40 °F    
Average Humidity 38    
Maximum Humidity 76    
Minimum Humidity 18    
Precipitation  
Precipitation 0.00 in - - ()
Sea Level Pressure  
Sea Level Pressure 30.13 in    
Wind  
Wind Speed 6 mph ()    
Max Wind Speed 21 mph    
Max Gust Speed 30 mph    
Visibility 10.0 miles    
Events      
Averages and records for this station are not official NWS values.
T = Trace of Precipitation, MM = Missing Value Source: Averaged Metar Reports

Daily Weather History Graph

Daily Weather History Graph

Search for Another Location

Airport or City:

Astronomy

Oct. 21, 2019 Rise Set
Actual Time 7:22 AM PDT 6:20 PM PDT
Civil Twilight 6:55 AM PDT 6:47 PM PDT
Nautical Twilight 6:24 AM PDT 7:18 PM PDT
Astronomical Twilight 5:53 AM PDT 7:49 PM PDT
Moon No Moon Rise 2:41 PM PDT
Length of Visible Light 11h 52m
Length of Day
10h 58m
Waning Gibbous, 47% of the Moon is Illuminated
Oct 21
Waning Gibbous
Oct 27
New
Nov 4
First Quarter
Nov 12
Full
Nov 19
Last Quarter

Hourly Weather History & Observations

Time (PDT) Temp. Dew Point Humidity Pressure Visibility Wind Dir Wind Speed Gust Speed Precip Events Conditions
12:15 AM 55.4 °F 41.0 °F 58% 30.11 in 10.0 mi Calm Calm - N/A   Clear
12:35 AM 53.6 °F 42.8 °F 67% 30.11 in 10.0 mi Calm Calm - N/A   Clear
12:55 AM 53.6 °F 41.0 °F 62% 30.11 in 10.0 mi Calm Calm - N/A   Clear
1:15 AM 53.6 °F 41.0 °F 62% 30.11 in 10.0 mi WSW 4.6 mph - N/A   Clear
1:35 AM 53.6 °F 41.0 °F 62% 30.11 in 10.0 mi Calm Calm - N/A   Clear
1:55 AM 53.6 °F 41.0 °F 62% 30.12 in 10.0 mi Calm Calm - N/A   Clear
2:15 AM 53.6 °F 41.0 °F 62% 30.12 in 10.0 mi Calm Calm - N/A   Clear
2:35 AM 55.4 °F 42.8 °F 63% 30.13 in 10.0 mi Calm Calm - N/A   Clear
2:55 AM 55.4 °F 42.8 °F 63% 30.12 in 10.0 mi NW 3.5 mph - N/A   Clear
3:15 AM 55.4 °F 41.0 °F 58% 30.12 in 10.0 mi NW 3.5 mph - N/A   Clear
3:35 AM 55.4 °F 41.0 °F 58% 30.12 in 10.0 mi NW 3.5 mph - N/A   Clear
3:55 AM 55.4 °F 41.0 °F 58% 30.11 in 10.0 mi WNW 4.6 mph - N/A   Clear
4:15 AM 57.2 °F 41.0 °F 55% 30.11 in 10.0 mi NW 5.8 mph - N/A   Clear
4:35 AM 57.2 °F 41.0 °F 55% 30.11 in 10.0 mi NW 3.5 mph - N/A   Clear
5:15 AM 55.4 °F 42.8 °F 63% 30.12 in 10.0 mi NNW 3.5 mph - N/A   Clear
5:35 AM 55.4 °F 41.0 °F 58% 30.12 in 10.0 mi Calm Calm - N/A   Clear
5:55 AM 53.6 °F 41.0 °F 62% 30.13 in 10.0 mi Calm Calm - N/A   Clear
6:15 AM 53.6 °F 41.0 °F 62% 30.13 in 10.0 mi NNE 4.6 mph - N/A   Clear
6:35 AM 53.6 °F 42.8 °F 67% 30.14 in 10.0 mi NE 4.6 mph - N/A   Clear
6:55 AM 53.6 °F 42.8 °F 67% 30.15 in 10.0 mi NNE 4.6 mph - N/A   Clear
7:15 AM 55.4 °F 42.8 °F 63% 30.14 in 10.0 mi Calm Calm - N/A   Clear
7:35 AM 50.0 °F 42.8 °F 76% 30.15 in 10.0 mi North 4.6 mph - N/A   Clear
7:55 AM 57.2 °F 44.6 °F 63% 30.15 in 10.0 mi North 5.8 mph - N/A   Clear
8:15 AM 57.2 °F 44.6 °F 63% 30.15 in 10.0 mi NNW 6.9 mph - N/A   Clear
8:35 AM 60.8 °F 44.6 °F 55% 30.16 in 10.0 mi North 6.9 mph - N/A   Clear
8:55 AM 64.4 °F 44.6 °F 49% 30.17 in 10.0 mi North 8.1 mph - N/A   Clear
9:35 AM 69.8 °F 41.0 °F 35% 30.17 in 10.0 mi North 12.7 mph 25.3 mph N/A   Clear
9:55 AM 71.6 °F 41.0 °F 33% 30.16 in 10.0 mi North 15.0 mph 23.0 mph N/A   Clear
10:15 AM 73.4 °F 41.0 °F 31% 30.16 in 10.0 mi North 16.1 mph 23.0 mph N/A   Clear
10:35 AM 73.4 °F 39.2 °F 29% 30.17 in 10.0 mi North 18.4 mph 27.6 mph N/A   Clear
10:55 AM 75.2 °F 39.2 °F 27% 30.17 in 10.0 mi North 15.0 mph 24.2 mph N/A   Clear
11:15 AM 75.2 °F 41.0 °F 29% 30.16 in 10.0 mi NNW 19.6 mph 27.6 mph N/A   Clear
11:35 AM 75.2 °F 39.2 °F 27% 30.16 in 10.0 mi North 17.3 mph 26.5 mph N/A   Clear
11:55 AM 77.0 °F 39.2 °F 26% 30.16 in 10.0 mi NNW 19.6 mph 24.2 mph N/A   Clear
12:15 PM 78.8 °F 37.4 °F 23% 30.16 in 10.0 mi North 19.6 mph 28.8 mph N/A   Clear
12:35 PM 80.6 °F 37.4 °F 21% 30.15 in 10.0 mi North 17.3 mph 24.2 mph N/A   Clear
12:55 PM 82.4 °F 39.2 °F 21% 30.14 in 10.0 mi NNW 19.6 mph 26.5 mph N/A   Clear
1:15 PM 82.4 °F 39.2 °F 21% 30.14 in 10.0 mi NNW 19.6 mph 24.2 mph N/A   Clear
1:35 PM 82.4 °F 39.2 °F 21% 30.13 in 10.0 mi NNW 16.1 mph 26.5 mph N/A   Clear
1:55 PM 82.4 °F 39.2 °F 21% 30.12 in 10.0 mi NNW 12.7 mph 24.2 mph N/A   Clear
2:10 PM 84.2 °F 39.2 °F 20% 30.11 in 10.0 mi NNW 15.0 mph 26.5 mph N/A   Clear
2:35 PM 84.2 °F 39.2 °F 20% 30.10 in 10.0 mi NNW 18.4 mph 28.8 mph N/A   Clear
2:55 PM 84.2 °F 39.2 °F 20% 30.09 in 9.0 mi NNW 20.7 mph 29.9 mph N/A   Clear
3:15 PM 84.2 °F 37.4 °F 19% 30.09 in 10.0 mi NNW 12.7 mph 28.8 mph N/A   Clear
3:35 PM 84.2 °F 37.4 °F 19% 30.09 in 10.0 mi NNW 16.1 mph 26.5 mph N/A   Clear
3:55 PM 84.2 °F 37.4 °F 19% 30.10 in 10.0 mi NNW 15.0 mph 27.6 mph N/A   Clear
4:15 PM 84.2 °F 35.6 °F 18% 30.10 in 10.0 mi NNW 15.0 mph 25.3 mph N/A   Clear
4:35 PM 84.2 °F 37.4 °F 19% 30.10 in 10.0 mi NNW 12.7 mph 23.0 mph N/A   Clear
4:55 PM 84.2 °F 37.4 °F 19% 30.10 in 10.0 mi NNW 12.7 mph 21.9 mph N/A   Clear
5:15 PM 82.4 °F 37.4 °F 20% 30.10 in 10.0 mi North 10.4 mph 20.7 mph N/A   Clear
5:35 PM 82.4 °F 37.4 °F 20% 30.10 in 10.0 mi NNW 11.5 mph 16.1 mph N/A   Clear
5:55 PM 80.6 °F 37.4 °F 21% 30.09 in 10.0 mi North 13.8 mph 19.6 mph N/A   Clear
6:15 PM 80.6 °F 37.4 °F 21% 30.09 in 10.0 mi North 10.4 mph - N/A   Clear
6:35 PM 78.8 °F 37.4 °F 23% 30.10 in 10.0 mi North 9.2 mph - N/A   Clear
6:55 PM 77.0 °F 37.4 °F 24% 30.10 in 10.0 mi NNW 9.2 mph - N/A   Clear
7:15 PM 77.0 °F 37.4 °F 24% 30.11 in 10.0 mi NNW 8.1 mph - N/A   Clear
7:35 PM 75.2 °F 37.4 °F 25% 30.12 in 10.0 mi NW 6.9 mph - N/A   Clear
7:55 PM 75.2 °F 37.4 °F 25% 30.12 in 10.0 mi NNW 6.9 mph - N/A   Clear
8:15 PM 73.4 °F 37.4 °F 27% 30.12 in 10.0 mi NNW 6.9 mph - N/A   Clear
8:35 PM 73.4 °F 37.4 °F 27% 30.13 in 10.0 mi NNW 5.8 mph - N/A   Clear
8:55 PM 71.6 °F 37.4 °F 29% 30.13 in 10.0 mi NNW 4.6 mph - N/A   Clear
9:15 PM 71.6 °F 39.2 °F 31% 30.13 in 10.0 mi NNW 6.9 mph - N/A   Clear
9:35 PM 71.6 °F 39.2 °F 31% 30.13 in 10.0 mi NNW 10.4 mph - N/A   Clear
9:55 PM 73.4 °F 39.2 °F 29% 30.13 in 10.0 mi NNW 9.2 mph - N/A   Clear
10:15 PM 73.4 °F 39.2 °F 29% 30.13 in 10.0 mi NNW 10.4 mph - N/A   Clear
10:35 PM 73.4 °F 39.2 °F 29% 30.14 in 10.0 mi NNW 8.1 mph - N/A   Clear
10:55 PM 71.6 °F 39.2 °F 31% 30.14 in 10.0 mi NNW 8.1 mph - N/A   Clear
11:15 PM 73.4 °F 39.2 °F 29% 30.14 in 10.0 mi NNW 9.2 mph - N/A   Clear
11:35 PM 73.4 °F 39.2 °F 29% 30.15 in 10.0 mi NNW 9.2 mph - N/A   Clear
11:55 PM 73.4 °F 39.2 °F 29% 30.15 in 10.0 mi NNW 8.1 mph - N/A   Clear